createdAt,value
2023-02-22T00:02:04.296Z,4.27
2023-02-22T00:05:06.014Z,4.28
2023-02-22T00:08:07.814Z,4.28
2023-02-22T00:11:09.656Z,4.27
2023-02-22T00:14:11.250Z,4.27
2023-02-22T00:17:12.908Z,4.27
2023-02-22T00:20:18.678Z,4.26
2023-02-22T00:23:22.768Z,4.27
2023-02-22T00:26:24.358Z,4.27
2023-02-22T00:29:26.043Z,4.26
2023-02-22T00:32:27.610Z,4.26
2023-02-22T00:35:30.883Z,4.26
2023-02-22T00:38:32.446Z,4.26
2023-02-22T00:41:34.333Z,4.27
2023-02-22T00:44:35.887Z,4.28
2023-02-22T00:47:37.496Z,4.29
2023-02-22T00:50:39.107Z,4.32
2023-02-22T00:53:40.764Z,4.35
2023-02-22T00:56:42.231Z,4.37
2023-02-22T00:59:43.853Z,4.39
2023-02-22T01:02:45.727Z,4.40
2023-02-22T01:05:47.603Z,4.41
2023-02-22T01:08:49.557Z,4.41
2023-02-22T01:11:54.520Z,4.40
2023-02-22T01:14:56.875Z,4.41
2023-02-22T01:17:59.316Z,4.40
2023-02-22T01:21:01.583Z,4.40
2023-02-22T01:24:03.563Z,4.39
2023-02-22T01:27:05.097Z,4.38
2023-02-22T01:30:07.924Z,4.37
2023-02-22T01:33:09.639Z,4.36
2023-02-22T01:36:11.138Z,4.37
2023-02-22T01:39:12.848Z,4.36
2023-02-22T01:42:14.397Z,4.37
2023-02-22T01:45:31.634Z,4.39
2023-02-22T01:48:55.423Z,4.41
2023-02-22T01:51:59.193Z,4.44
2023-02-22T01:55:00.882Z,4.48
2023-02-22T01:58:02.957Z,4.50
2023-02-22T02:01:05.906Z,4.50
2023-02-22T02:04:11.317Z,4.51
2023-02-22T02:07:15.022Z,4.49
2023-02-22T02:10:16.939Z,4.47
2023-02-22T02:13:18.585Z,4.43
2023-02-22T02:16:20.094Z,4.40
2023-02-22T02:19:42.450Z,4.37
2023-02-22T02:23:05.532Z,4.34
2023-02-22T02:26:19.000Z,4.31
2023-02-22T02:29:51.141Z,4.27
2023-02-22T02:32:54.310Z,4.24
2023-02-22T02:36:20.796Z,4.21
2023-02-22T02:39:39.702Z,4.19
2023-02-22T02:42:46.479Z,4.16
2023-02-22T02:45:52.141Z,4.13
2023-02-22T02:48:57.981Z,4.10
2023-02-22T02:52:01.048Z,4.09
2023-02-22T02:55:04.350Z,4.09
2023-02-22T02:58:07.572Z,4.07
2023-02-22T03:01:09.242Z,4.06
2023-02-22T03:04:31.181Z,4.04
2023-02-22T03:08:16.334Z,4.04
2023-02-22T03:11:37.708Z,4.04
2023-02-22T03:15:13.995Z,4.02
2023-02-22T03:18:27.776Z,3.99
2023-02-22T03:21:38.596Z,3.98
2023-02-22T03:24:59.138Z,3.95
2023-02-22T03:28:05.193Z,3.94
2023-02-22T03:31:17.472Z,3.94
2023-02-22T03:34:23.061Z,3.94
2023-02-22T03:37:28.483Z,3.94
2023-02-22T03:40:46.537Z,3.92
2023-02-22T03:43:50.619Z,3.91
2023-02-22T03:46:54.747Z,3.90
2023-02-22T03:50:01.167Z,3.89
2023-02-22T03:53:02.996Z,3.89
2023-02-22T03:56:05.412Z,3.88
2023-02-22T03:59:09.301Z,3.85
2023-02-22T04:02:10.940Z,3.82
2023-02-22T04:05:12.459Z,3.79
2023-02-22T04:08:14.071Z,3.78
2023-02-22T04:11:16.007Z,3.77
2023-02-22T04:14:17.733Z,3.77
2023-02-22T04:17:19.598Z,3.76
2023-02-22T04:20:21.511Z,3.74
2023-02-22T04:23:23.149Z,3.75
2023-02-22T04:26:25.088Z,3.75
2023-02-22T04:29:26.564Z,3.74
2023-02-22T04:32:28.301Z,3.74
2023-02-22T04:35:29.911Z,3.76
2023-02-22T04:38:31.522Z,3.77
2023-02-22T04:41:33.092Z,3.77
2023-02-22T04:44:34.720Z,3.77
2023-02-22T04:47:36.655Z,3.77
2023-02-22T04:50:38.254Z,3.75
2023-02-22T04:53:40.758Z,3.75
2023-02-22T04:56:42.508Z,3.76
2023-02-22T04:59:44.048Z,3.76
2023-02-22T05:02:45.827Z,3.75
2023-02-22T05:05:48.760Z,3.70
2023-02-22T05:08:50.327Z,3.60
2023-02-22T05:11:52.021Z,3.51
2023-02-22T05:14:53.708Z,3.43
2023-02-22T05:17:55.126Z,3.36
2023-02-22T05:20:56.630Z,3.33
2023-02-22T05:23:58.147Z,3.26
2023-02-22T05:27:00.631Z,3.19
2023-02-22T05:30:02.378Z,3.19
2023-02-22T05:33:04.181Z,3.20
2023-02-22T05:36:06.767Z,3.16
2023-02-22T05:39:08.626Z,3.09
2023-02-22T05:42:10.209Z,3.04
2023-02-22T05:45:15.890Z,2.99
2023-02-22T05:48:17.573Z,3.00
2023-02-22T05:51:19.214Z,3.05
2023-02-22T05:54:20.879Z,3.09
2023-02-22T05:57:22.598Z,3.10
2023-02-22T06:00:26.064Z,3.10
2023-02-22T06:03:27.649Z,3.11
2023-02-22T06:06:29.210Z,3.12
2023-02-22T06:09:30.737Z,3.15
2023-02-22T06:12:32.272Z,3.14
2023-02-22T06:15:33.904Z,3.10
2023-02-22T06:18:35.410Z,3.09
2023-02-22T06:21:37.039Z,3.10
2023-02-22T06:24:39.011Z,3.10
2023-02-22T06:27:40.740Z,3.12
2023-02-22T06:30:42.432Z,3.17
2023-02-22T06:33:43.959Z,3.30
2023-02-22T06:36:45.751Z,3.40
2023-02-22T06:39:47.355Z,3.50
2023-02-22T06:42:49.487Z,3.58
2023-02-22T06:45:51.774Z,3.66
2023-02-22T06:48:53.373Z,3.74
2023-02-22T06:51:55.003Z,3.80
2023-02-22T06:54:56.600Z,3.87
2023-02-22T06:57:59.251Z,3.95
2023-02-22T07:01:00.984Z,4.03
2023-02-22T07:04:02.653Z,4.08
2023-02-22T07:07:04.706Z,4.09
2023-02-22T07:10:23.724Z,4.09
2023-02-22T07:13:25.278Z,4.13
2023-02-22T07:16:26.874Z,4.22
2023-02-22T07:19:28.438Z,4.33
2023-02-22T07:22:30.127Z,4.43
2023-02-22T07:25:31.706Z,4.51
2023-02-22T07:28:33.147Z,4.62
2023-02-22T07:31:36.586Z,4.76
2023-02-22T07:34:38.149Z,4.89
2023-02-22T07:37:39.729Z,5.00
2023-02-22T07:40:42.371Z,5.05
2023-02-22T07:43:44.070Z,5.07
2023-02-22T07:46:48.826Z,5.15
2023-02-22T07:49:50.405Z,5.28
2023-02-22T07:52:52.921Z,5.43
2023-02-22T07:55:54.681Z,5.53
2023-02-22T07:58:56.575Z,5.54
2023-02-22T08:01:58.212Z,5.59
2023-02-22T08:04:59.719Z,5.63
2023-02-22T08:08:01.950Z,5.69
2023-02-22T08:11:03.658Z,5.72
2023-02-22T08:14:05.246Z,5.68
2023-02-22T08:17:08.748Z,5.68
2023-02-22T08:20:10.877Z,5.70
2023-02-22T08:23:14.506Z,5.68
2023-02-22T08:26:16.027Z,5.70
2023-02-22T08:29:17.488Z,5.74
2023-02-22T08:32:20.064Z,5.80
2023-02-22T08:35:22.456Z,5.88
2023-02-22T08:38:27.297Z,5.96
2023-02-22T08:41:28.873Z,6.11
2023-02-22T08:44:30.392Z,6.31
2023-02-22T08:47:31.947Z,6.48
2023-02-22T08:50:33.667Z,6.66
2023-02-22T08:53:35.268Z,6.92
2023-02-22T08:56:36.834Z,7.11
2023-02-22T08:59:38.346Z,7.18
2023-02-22T09:02:39.971Z,7.27
2023-02-22T09:05:42.851Z,7.55
2023-02-22T09:08:44.561Z,7.85
2023-02-22T09:11:46.049Z,7.97
2023-02-22T09:14:47.653Z,8.04
2023-02-22T09:17:49.240Z,8.03
2023-02-22T09:20:52.160Z,8.11
2023-02-22T09:23:53.849Z,8.20
2023-02-22T09:26:55.620Z,8.27
2023-02-22T09:29:57.308Z,8.38
2023-02-22T09:33:02.597Z,8.51
2023-02-22T09:36:04.931Z,8.53
2023-02-22T09:39:07.038Z,8.39
2023-02-22T09:42:29.695Z,8.38
2023-02-22T09:46:05.814Z,8.26
2023-02-22T09:49:29.435Z,7.87
2023-02-22T09:52:37.008Z,7.60
2023-02-22T09:55:46.593Z,7.50
2023-02-22T09:58:54.481Z,7.51
2023-02-22T10:02:05.601Z,7.55
2023-02-22T10:05:07.160Z,7.58
2023-02-22T10:08:14.713Z,7.58
2023-02-22T10:11:42.193Z,7.53
2023-02-22T10:15:10.223Z,7.85
2023-02-22T10:18:43.433Z,8.28
2023-02-22T10:22:01.584Z,9.60
2023-02-22T10:25:07.526Z,9.87
2023-02-22T10:28:18.038Z,9.92
2023-02-22T10:31:27.386Z,9.95
2023-02-22T10:34:52.503Z,9.67
2023-02-22T10:37:57.688Z,9.37
2023-02-22T10:41:04.924Z,9.26
2023-02-22T10:44:06.555Z,9.27
2023-02-22T10:47:16.007Z,9.15
2023-02-22T10:50:19.866Z,8.87
2023-02-22T10:53:21.504Z,8.64
2023-02-22T10:56:25.359Z,8.63
2023-02-22T10:59:37.565Z,8.57
2023-02-22T11:02:39.385Z,8.38
2023-02-22T11:05:41.310Z,8.88
2023-02-22T11:08:43.098Z,10.22
2023-02-22T11:11:46.904Z,10.60
2023-02-22T11:14:48.800Z,10.37
2023-02-22T11:17:52.721Z,9.95
2023-02-22T11:21:09.240Z,9.52
2023-02-22T11:24:12.978Z,9.09
2023-02-22T11:27:35.347Z,8.79
2023-02-22T11:30:37.722Z,8.49
2023-02-22T11:33:39.718Z,8.27
2023-02-22T11:36:43.041Z,8.07
2023-02-22T11:39:45.623Z,7.96
2023-02-22T11:42:47.397Z,7.82
2023-02-22T11:46:17.113Z,7.80
2023-02-22T11:49:18.892Z,7.85
2023-02-22T11:52:34.763Z,7.95
2023-02-22T11:55:47.721Z,8.29
2023-02-22T11:59:17.525Z,9.13
2023-02-22T12:02:31.508Z,9.13
2023-02-22T12:05:39.355Z,9.07
2023-02-22T12:08:47.628Z,9.09
2023-02-22T12:12:20.385Z,8.94
2023-02-22T12:16:00.688Z,8.85
2023-02-22T12:19:02.497Z,8.86
2023-02-22T12:22:08.788Z,9.14
2023-02-22T12:25:23.942Z,9.45
2023-02-22T12:28:34.850Z,9.47
2023-02-22T12:31:39.645Z,9.33
2023-02-22T12:34:49.076Z,9.28
2023-02-22T12:38:13.671Z,9.31
2023-02-22T12:41:45.910Z,9.72
2023-02-22T12:44:55.430Z,9.65
2023-02-22T12:48:15.734Z,9.49
2023-02-22T12:51:26.248Z,9.40
2023-02-22T12:54:49.252Z,9.34
2023-02-22T12:58:19.189Z,9.20
2023-02-22T13:01:24.258Z,8.99
2023-02-22T13:04:26.380Z,8.90
2023-02-22T13:07:37.689Z,8.89
2023-02-22T13:11:01.818Z,8.87
2023-02-22T13:14:08.887Z,8.81
2023-02-22T13:17:45.309Z,8.76
2023-02-22T13:20:57.744Z,8.72
2023-02-22T13:24:05.687Z,8.57
2023-02-22T13:27:14.795Z,8.46
2023-02-22T13:30:35.555Z,8.45
2023-02-22T13:33:49.390Z,8.55
2023-02-22T13:37:12.137Z,8.45
2023-02-22T13:40:26.012Z,8.70
2023-02-22T13:44:05.615Z,9.21
2023-02-22T13:47:22.569Z,9.81
2023-02-22T13:50:30.258Z,10.19
2023-02-22T13:53:49.650Z,10.42
2023-02-22T13:56:52.495Z,10.51
2023-02-22T14:00:16.271Z,10.30
2023-02-22T14:03:41.466Z,10.15
2023-02-22T14:06:43.389Z,9.75
2023-02-22T14:09:51.206Z,9.44
2023-02-22T14:12:53.076Z,9.35
2023-02-22T14:15:57.950Z,9.16
2023-02-22T14:19:05.416Z,9.03
2023-02-22T14:22:07.278Z,8.85
2023-02-22T14:25:37.332Z,8.56
2023-02-22T14:28:50.471Z,8.29
2023-02-22T14:31:52.249Z,8.08
2023-02-22T14:34:56.935Z,7.98
2023-02-22T14:38:00.541Z,7.87
2023-02-22T14:41:02.805Z,7.80
2023-02-22T14:44:05.652Z,7.75
2023-02-22T14:47:12.838Z,7.67
2023-02-22T14:50:22.151Z,7.61
2023-02-22T14:53:53.437Z,7.62
2023-02-22T14:57:11.925Z,7.68
2023-02-22T15:00:21.365Z,7.70
2023-02-22T15:03:32.509Z,7.73
2023-02-22T15:06:34.247Z,7.78
2023-02-22T15:09:36.132Z,7.72
2023-02-22T15:12:37.792Z,7.59
2023-02-22T15:15:44.157Z,7.49
2023-02-22T15:18:48.897Z,7.46
2023-02-22T15:21:52.198Z,7.34
2023-02-22T15:24:59.556Z,7.20
2023-02-22T15:28:03.851Z,7.06
2023-02-22T15:31:24.002Z,6.92
2023-02-22T15:34:31.994Z,6.75
2023-02-22T15:37:33.856Z,6.59
2023-02-22T15:40:36.196Z,6.42
2023-02-22T15:43:38.120Z,6.23
2023-02-22T15:46:39.720Z,6.06
2023-02-22T15:49:41.281Z,5.89
2023-02-22T15:53:09.217Z,5.69
2023-02-22T15:56:14.837Z,5.47
2023-02-22T15:59:18.757Z,5.28
2023-02-22T16:02:39.819Z,5.10
2023-02-22T16:05:51.056Z,4.95
2023-02-22T16:08:55.506Z,4.82
2023-02-22T16:12:09.133Z,4.69
2023-02-22T16:15:18.734Z,4.56
2023-02-22T16:18:36.398Z,4.42
2023-02-22T16:21:51.158Z,4.29
2023-02-22T16:24:53.545Z,4.15
2023-02-22T16:27:57.986Z,4.03
2023-02-22T16:31:00.124Z,3.94
2023-02-22T16:34:03.150Z,3.82
2023-02-22T16:37:04.771Z,3.71
2023-02-22T16:40:06.886Z,3.59
2023-02-22T16:43:14.130Z,3.52
2023-02-22T16:46:15.960Z,3.47
2023-02-22T16:49:17.957Z,3.43
2023-02-22T16:52:20.296Z,3.19
2023-02-22T16:55:22.280Z,2.99
2023-02-22T16:58:24.787Z,2.86
2023-02-22T17:01:26.389Z,2.77
2023-02-22T17:04:28.062Z,2.68
2023-02-22T17:07:30.126Z,2.61
2023-02-22T17:10:31.758Z,2.53
2023-02-22T17:13:33.547Z,2.48
2023-02-22T17:16:34.999Z,2.44
2023-02-22T17:19:37.704Z,2.41
2023-02-22T17:22:39.511Z,2.42
2023-02-22T17:25:52.620Z,2.42
2023-02-22T17:28:54.171Z,2.44
2023-02-22T17:31:56.286Z,2.43
2023-02-22T17:34:58.125Z,2.39
2023-02-22T17:38:00.756Z,2.22
2023-02-22T17:41:02.299Z,1.93
2023-02-22T17:44:04.651Z,1.68
2023-02-22T17:47:06.275Z,1.47
2023-02-22T17:50:09.567Z,1.28
2023-02-22T17:53:11.262Z,1.17
2023-02-22T17:56:13.655Z,1.14
2023-02-22T17:59:15.396Z,1.09
2023-02-22T18:02:16.883Z,1.07
2023-02-22T18:05:19.070Z,1.03
2023-02-22T18:08:20.841Z,0.94
2023-02-22T18:11:22.405Z,0.86
2023-02-22T18:14:23.948Z,0.80
2023-02-22T18:17:25.631Z,0.80
2023-02-22T18:20:27.248Z,0.84
2023-02-22T18:23:31.043Z,0.84
2023-02-22T18:26:32.685Z,0.84
2023-02-22T18:29:34.619Z,0.80
2023-02-22T18:32:36.227Z,0.80
2023-02-22T18:35:39.427Z,0.79
2023-02-22T18:38:42.285Z,0.81
2023-02-22T18:41:44.275Z,0.80
2023-02-22T18:44:45.866Z,0.78
2023-02-22T18:47:47.454Z,0.75
2023-02-22T18:50:49.113Z,0.66
2023-02-22T18:53:50.882Z,0.60
2023-02-22T18:56:52.467Z,0.60
2023-02-22T18:59:54.051Z,0.64
2023-02-22T19:02:55.705Z,0.65
2023-02-22T19:06:03.943Z,0.56
2023-02-22T19:09:06.320Z,0.46
2023-02-22T19:12:08.055Z,0.40
2023-02-22T19:15:09.628Z,0.30
2023-02-22T19:18:11.197Z,0.21
2023-02-22T19:21:13.306Z,0.11
2023-02-22T19:24:15.354Z,-0.01
2023-02-22T19:27:16.991Z,-0.10
2023-02-22T19:30:18.711Z,-0.15
2023-02-22T19:33:20.316Z,-0.22
2023-02-22T19:36:22.601Z,-0.25
2023-02-22T19:39:24.225Z,-0.25
2023-02-22T19:42:25.911Z,-0.28
2023-02-22T19:45:27.457Z,-0.34
2023-02-22T19:48:29.162Z,-0.41
2023-02-22T19:51:31.813Z,-0.50
2023-02-22T19:54:33.829Z,-0.58
2023-02-22T19:57:35.413Z,-0.56
2023-02-22T20:00:37.094Z,-0.43
2023-02-22T20:03:38.914Z,-0.23
2023-02-22T20:06:41.921Z,-0.03
2023-02-22T20:09:43.565Z,0.14
2023-02-22T20:12:45.092Z,0.25
2023-02-22T20:15:46.650Z,0.34
2023-02-22T20:18:48.890Z,0.40
2023-02-22T20:21:50.860Z,0.48
2023-02-22T20:24:52.400Z,0.50
2023-02-22T20:27:55.674Z,0.47
2023-02-22T20:30:57.415Z,0.40
2023-02-22T20:34:00.567Z,0.37
2023-02-22T20:37:02.761Z,0.36
2023-02-22T20:40:05.387Z,0.33
2023-02-22T20:43:07.002Z,0.33
2023-02-22T20:46:08.604Z,0.31
2023-02-22T20:49:13.170Z,0.28
2023-02-22T20:52:14.933Z,0.21
2023-02-22T20:55:16.584Z,0.18
2023-02-22T20:58:18.867Z,0.13
2023-02-22T21:01:21.323Z,0.10
2023-02-22T21:04:23.224Z,0.05
2023-02-22T21:07:25.090Z,0.02
2023-02-22T21:10:26.666Z,-0.04
2023-02-22T21:13:28.270Z,-0.09
2023-02-22T21:16:32.841Z,-0.18
2023-02-22T21:19:34.633Z,-0.25
2023-02-22T21:22:36.061Z,-0.30
2023-02-22T21:25:38.253Z,-0.32
2023-02-22T21:28:50.974Z,-0.35
2023-02-22T21:31:53.351Z,-0.40
2023-02-22T21:34:54.892Z,-0.35
2023-02-22T21:37:56.478Z,-0.31
2023-02-22T21:40:58.093Z,-0.28
2023-02-22T21:43:59.986Z,-0.27
2023-02-22T21:47:01.817Z,-0.26
2023-02-22T21:50:03.420Z,-0.27
2023-02-22T21:53:04.957Z,-0.27
2023-02-22T21:56:06.896Z,-0.28
2023-02-22T21:59:13.107Z,-0.30
2023-02-22T22:02:14.865Z,-0.31
2023-02-22T22:05:16.662Z,-0.32
2023-02-22T22:08:18.108Z,-0.32
2023-02-22T22:11:20.457Z,-0.32
2023-02-22T22:14:23.571Z,-0.34
2023-02-22T22:17:25.107Z,-0.35
2023-02-22T22:20:26.742Z,-0.37
2023-02-22T22:23:28.358Z,-0.40
2023-02-22T22:26:30.000Z,-0.46
2023-02-22T22:29:31.957Z,-0.51
2023-02-22T22:32:33.922Z,-0.55
2023-02-22T22:35:38.498Z,-0.60
2023-02-22T22:38:40.190Z,-0.65
2023-02-22T22:41:45.402Z,-0.69
2023-02-22T22:44:47.136Z,-0.74
2023-02-22T22:47:48.760Z,-0.79
2023-02-22T22:50:58.184Z,-0.83
2023-02-22T22:53:59.755Z,-0.89
2023-02-22T22:57:01.759Z,-0.93
2023-02-22T23:00:04.386Z,-0.96
2023-02-22T23:03:07.833Z,-1.00
2023-02-22T23:06:09.578Z,-1.03
2023-02-22T23:09:16.473Z,-1.08
2023-02-22T23:12:18.014Z,-1.11
2023-02-22T23:15:19.596Z,-1.15
2023-02-22T23:18:21.226Z,-1.17
2023-02-22T23:21:22.817Z,-1.19
2023-02-22T23:24:25.414Z,-1.22
2023-02-22T23:27:26.942Z,-1.25
2023-02-22T23:30:28.566Z,-1.27
2023-02-22T23:33:30.352Z,-1.31
2023-02-22T23:36:31.850Z,-1.34
2023-02-22T23:39:33.369Z,-1.39
2023-02-22T23:42:34.955Z,-1.41
2023-02-22T23:45:36.465Z,-1.43
2023-02-22T23:48:42.485Z,-1.45
2023-02-22T23:51:44.066Z,-1.47
2023-02-22T23:54:45.708Z,-1.49
2023-02-22T23:57:47.748Z,-1.52
